sensor_id;sensor_type;location;lat;lon;timestamp;P1;durP1;ratioP1;P2;durP2;ratioP2
79438;SDS011;68889;48.232;10.110;2023-04-06T00:01:36;12.18;;;7.72;;
79438;SDS011;68889;48.232;10.110;2023-04-06T00:04:02;9.98;;;6.93;;
79438;SDS011;68889;48.232;10.110;2023-04-06T00:06:28;11.77;;;6.90;;
79438;SDS011;68889;48.232;10.110;2023-04-06T00:08:53;11.40;;;7.32;;
79438;SDS011;68889;48.232;10.110;2023-04-06T00:11:19;12.05;;;7.38;;
79438;SDS011;68889;48.232;10.110;2023-04-06T00:13:45;9.55;;;6.43;;
79438;SDS011;68889;48.232;10.110;2023-04-06T00:16:10;12.27;;;7.57;;
79438;SDS011;68889;48.232;10.110;2023-04-06T00:18:36;12.18;;;7.47;;
79438;SDS011;68889;48.232;10.110;2023-04-06T00:21:01;10.70;;;7.20;;
79438;SDS011;68889;48.232;10.110;2023-04-06T00:23:27;11.38;;;6.90;;
79438;SDS011;68889;48.232;10.110;2023-04-06T00:25:53;13.18;;;7.45;;
79438;SDS011;68889;48.232;10.110;2023-04-06T00:28:19;11.10;;;7.15;;
79438;SDS011;68889;48.232;10.110;2023-04-06T00:30:50;13.55;;;7.75;;
79438;SDS011;68889;48.232;10.110;2023-04-06T00:33:17;10.23;;;6.97;;
79438;SDS011;68889;48.232;10.110;2023-04-06T00:35:43;12.43;;;7.32;;
79438;SDS011;68889;48.232;10.110;2023-04-06T00:38:09;12.18;;;7.55;;
79438;SDS011;68889;48.232;10.110;2023-04-06T00:40:35;10.27;;;6.60;;
79438;SDS011;68889;48.232;10.110;2023-04-06T00:43:00;11.65;;;7.18;;
79438;SDS011;68889;48.232;10.110;2023-04-06T00:45:26;10.80;;;7.13;;
79438;SDS011;68889;48.232;10.110;2023-04-06T00:47:52;12.38;;;7.35;;
79438;SDS011;68889;48.232;10.110;2023-04-06T00:50:18;12.57;;;8.40;;
79438;SDS011;68889;48.232;10.110;2023-04-06T00:52:43;10.55;;;7.20;;
79438;SDS011;68889;48.232;10.110;2023-04-06T00:55:09;16.27;;;8.10;;
79438;SDS011;68889;48.232;10.110;2023-04-06T00:57:35;12.13;;;7.68;;
79438;SDS011;68889;48.232;10.110;2023-04-06T01:00:01;13.40;;;8.68;;
79438;SDS011;68889;48.232;10.110;2023-04-06T01:02:27;14.90;;;8.15;;
79438;SDS011;68889;48.232;10.110;2023-04-06T01:04:52;17.38;;;9.02;;
79438;SDS011;68889;48.232;10.110;2023-04-06T01:07:19;15.65;;;9.07;;
79438;SDS011;68889;48.232;10.110;2023-04-06T01:09:44;12.40;;;8.23;;
79438;SDS011;68889;48.232;10.110;2023-04-06T01:12:10;15.60;;;8.68;;
79438;SDS011;68889;48.232;10.110;2023-04-06T01:14:36;15.23;;;8.18;;
79438;SDS011;68889;48.232;10.110;2023-04-06T01:17:01;12.85;;;8.30;;
79438;SDS011;68889;48.232;10.110;2023-04-06T01:19:27;14.93;;;9.10;;
79438;SDS011;68889;48.232;10.110;2023-04-06T01:21:53;14.70;;;8.23;;
79438;SDS011;68889;48.232;10.110;2023-04-06T01:24:19;14.55;;;9.27;;
79438;SDS011;68889;48.232;10.110;2023-04-06T01:26:45;13.05;;;8.48;;
79438;SDS011;68889;48.232;10.110;2023-04-06T01:29:11;12.80;;;9.38;;
79438;SDS011;68889;48.232;10.110;2023-04-06T01:31:37;14.55;;;8.18;;
79438;SDS011;68889;48.232;10.110;2023-04-06T01:34:03;14.60;;;8.90;;
79438;SDS011;68889;48.232;10.110;2023-04-06T01:36:29;13.93;;;9.23;;
79438;SDS011;68889;48.232;10.110;2023-04-06T01:38:54;16.02;;;9.43;;
79438;SDS011;68889;48.232;10.110;2023-04-06T01:41:20;14.60;;;9.40;;
79438;SDS011;68889;48.232;10.110;2023-04-06T01:43:47;15.13;;;9.13;;
79438;SDS011;68889;48.232;10.110;2023-04-06T01:46:13;17.08;;;9.23;;
79438;SDS011;68889;48.232;10.110;2023-04-06T01:48:39;14.38;;;8.80;;
79438;SDS011;68889;48.232;10.110;2023-04-06T01:51:05;17.20;;;9.70;;
79438;SDS011;68889;48.232;10.110;2023-04-06T01:53:31;15.50;;;9.10;;
79438;SDS011;68889;48.232;10.110;2023-04-06T01:55:56;16.83;;;9.70;;
79438;SDS011;68889;48.232;10.110;2023-04-06T01:58:25;17.35;;;9.38;;
79438;SDS011;68889;48.232;10.110;2023-04-06T02:00:51;16.60;;;10.05;;
79438;SDS011;68889;48.232;10.110;2023-04-06T02:03:16;18.85;;;10.63;;
79438;SDS011;68889;48.232;10.110;2023-04-06T02:05:42;18.95;;;9.70;;
79438;SDS011;68889;48.232;10.110;2023-04-06T02:08:07;16.33;;;8.68;;
79438;SDS011;68889;48.232;10.110;2023-04-06T02:10:33;16.67;;;9.75;;
79438;SDS011;68889;48.232;10.110;2023-04-06T02:12:59;14.82;;;9.45;;
79438;SDS011;68889;48.232;10.110;2023-04-06T02:15:25;16.70;;;9.15;;
79438;SDS011;68889;48.232;10.110;2023-04-06T02:17:51;15.60;;;9.20;;
79438;SDS011;68889;48.232;10.110;2023-04-06T02:20:17;15.55;;;9.38;;
79438;SDS011;68889;48.232;10.110;2023-04-06T02:22:42;16.13;;;9.35;;
79438;SDS011;68889;48.232;10.110;2023-04-06T02:25:09;19.33;;;10.68;;
79438;SDS011;68889;48.232;10.110;2023-04-06T02:27:35;14.18;;;9.52;;
79438;SDS011;68889;48.232;10.110;2023-04-06T02:30:01;15.13;;;9.77;;
79438;SDS011;68889;48.232;10.110;2023-04-06T02:32:29;17.98;;;9.95;;
79438;SDS011;68889;48.232;10.110;2023-04-06T02:34:55;17.55;;;10.27;;
79438;SDS011;68889;48.232;10.110;2023-04-06T02:37:21;16.25;;;9.85;;
79438;SDS011;68889;48.232;10.110;2023-04-06T02:39:48;15.05;;;9.35;;
79438;SDS011;68889;48.232;10.110;2023-04-06T02:42:13;17.85;;;10.38;;
79438;SDS011;68889;48.232;10.110;2023-04-06T02:44:40;16.67;;;9.48;;
79438;SDS011;68889;48.232;10.110;2023-04-06T02:47:09;16.25;;;9.75;;
79438;SDS011;68889;48.232;10.110;2023-04-06T02:49:35;16.23;;;9.27;;
79438;SDS011;68889;48.232;10.110;2023-04-06T02:52:01;23.98;;;10.73;;
79438;SDS011;68889;48.232;10.110;2023-04-06T02:54:27;18.20;;;9.88;;
79438;SDS011;68889;48.232;10.110;2023-04-06T02:56:52;15.00;;;8.80;;
79438;SDS011;68889;48.232;10.110;2023-04-06T02:59:18;16.10;;;9.52;;
79438;SDS011;68889;48.232;10.110;2023-04-06T03:01:43;17.30;;;10.25;;
79438;SDS011;68889;48.232;10.110;2023-04-06T03:04:09;19.45;;;9.85;;
79438;SDS011;68889;48.232;10.110;2023-04-06T03:06:35;21.00;;;10.10;;
79438;SDS011;68889;48.232;10.110;2023-04-06T03:09:00;16.85;;;9.82;;
79438;SDS011;68889;48.232;10.110;2023-04-06T03:11:26;16.70;;;9.70;;
79438;SDS011;68889;48.232;10.110;2023-04-06T03:13:51;17.92;;;10.23;;
79438;SDS011;68889;48.232;10.110;2023-04-06T03:16:17;13.77;;;9.32;;
79438;SDS011;68889;48.232;10.110;2023-04-06T03:18:42;16.88;;;9.95;;
79438;SDS011;68889;48.232;10.110;2023-04-06T03:21:09;15.75;;;9.02;;
79438;SDS011;68889;48.232;10.110;2023-04-06T03:23:35;21.15;;;10.27;;
79438;SDS011;68889;48.232;10.110;2023-04-06T03:26:01;16.42;;;9.30;;
79438;SDS011;68889;48.232;10.110;2023-04-06T03:28:27;17.67;;;9.73;;
79438;SDS011;68889;48.232;10.110;2023-04-06T03:30:53;17.50;;;9.50;;
79438;SDS011;68889;48.232;10.110;2023-04-06T03:33:18;17.83;;;9.55;;
79438;SDS011;68889;48.232;10.110;2023-04-06T03:35:44;16.80;;;9.30;;
79438;SDS011;68889;48.232;10.110;2023-04-06T03:38:09;18.60;;;9.90;;
79438;SDS011;68889;48.232;10.110;2023-04-06T03:40:35;16.92;;;9.30;;
79438;SDS011;68889;48.232;10.110;2023-04-06T03:43:01;16.63;;;9.80;;
79438;SDS011;68889;48.232;10.110;2023-04-06T03:45:26;16.67;;;9.80;;
79438;SDS011;68889;48.232;10.110;2023-04-06T03:47:52;17.83;;;9.63;;
79438;SDS011;68889;48.232;10.110;2023-04-06T03:50:17;14.90;;;8.88;;
79438;SDS011;68889;48.232;10.110;2023-04-06T03:52:43;19.80;;;11.07;;
79438;SDS011;68889;48.232;10.110;2023-04-06T03:55:08;18.88;;;9.80;;
79438;SDS011;68889;48.232;10.110;2023-04-06T03:57:34;19.23;;;9.43;;
79438;SDS011;68889;48.232;10.110;2023-04-06T04:00:00;16.60;;;10.05;;
79438;SDS011;68889;48.232;10.110;2023-04-06T04:02:25;17.05;;;9.65;;
79438;SDS011;68889;48.232;10.110;2023-04-06T04:04:51;19.08;;;10.18;;
79438;SDS011;68889;48.232;10.110;2023-04-06T04:07:16;16.50;;;9.30;;
79438;SDS011;68889;48.232;10.110;2023-04-06T04:09:42;16.73;;;9.38;;
79438;SDS011;68889;48.232;10.110;2023-04-06T04:12:08;19.05;;;10.02;;
79438;SDS011;68889;48.232;10.110;2023-04-06T04:14:33;21.38;;;11.13;;
79438;SDS011;68889;48.232;10.110;2023-04-06T04:16:59;19.15;;;9.98;;
79438;SDS011;68889;48.232;10.110;2023-04-06T04:19:25;16.52;;;10.23;;
79438;SDS011;68889;48.232;10.110;2023-04-06T04:21:50;16.02;;;9.25;;
79438;SDS011;68889;48.232;10.110;2023-04-06T04:24:16;19.05;;;9.88;;
79438;SDS011;68889;48.232;10.110;2023-04-06T04:26:41;15.60;;;9.85;;
79438;SDS011;68889;48.232;10.110;2023-04-06T04:29:07;18.92;;;10.10;;
79438;SDS011;68889;48.232;10.110;2023-04-06T04:31:32;15.82;;;8.57;;
79438;SDS011;68889;48.232;10.110;2023-04-06T04:33:59;17.08;;;9.40;;
79438;SDS011;68889;48.232;10.110;2023-04-06T04:36:25;19.20;;;10.27;;
79438;SDS011;68889;48.232;10.110;2023-04-06T04:38:51;17.90;;;9.38;;
79438;SDS011;68889;48.232;10.110;2023-04-06T04:41:17;19.27;;;9.77;;
79438;SDS011;68889;48.232;10.110;2023-04-06T04:43:43;18.08;;;9.70;;
79438;SDS011;68889;48.232;10.110;2023-04-06T04:46:08;16.98;;;9.68;;
79438;SDS011;68889;48.232;10.110;2023-04-06T04:48:34;19.10;;;10.23;;
79438;SDS011;68889;48.232;10.110;2023-04-06T04:51:00;16.67;;;9.50;;
79438;SDS011;68889;48.232;10.110;2023-04-06T04:53:25;15.23;;;9.32;;
79438;SDS011;68889;48.232;10.110;2023-04-06T04:55:51;17.70;;;9.82;;
79438;SDS011;68889;48.232;10.110;2023-04-06T04:58:16;16.05;;;8.90;;
79438;SDS011;68889;48.232;10.110;2023-04-06T05:00:44;16.10;;;9.52;;
79438;SDS011;68889;48.232;10.110;2023-04-06T05:03:12;17.88;;;9.45;;
79438;SDS011;68889;48.232;10.110;2023-04-06T05:05:42;19.85;;;10.82;;
79438;SDS011;68889;48.232;10.110;2023-04-06T05:08:08;18.20;;;9.68;;
79438;SDS011;68889;48.232;10.110;2023-04-06T05:10:34;19.05;;;9.90;;
79438;SDS011;68889;48.232;10.110;2023-04-06T05:13:00;18.70;;;9.90;;
79438;SDS011;68889;48.232;10.110;2023-04-06T05:15:25;16.00;;;9.25;;
79438;SDS011;68889;48.232;10.110;2023-04-06T05:17:51;16.50;;;9.77;;
79438;SDS011;68889;48.232;10.110;2023-04-06T05:20:17;18.67;;;9.57;;
79438;SDS011;68889;48.232;10.110;2023-04-06T05:22:42;17.77;;;8.88;;
79438;SDS011;68889;48.232;10.110;2023-04-06T05:25:08;15.00;;;9.30;;
79438;SDS011;68889;48.232;10.110;2023-04-06T05:27:33;21.80;;;10.13;;
79438;SDS011;68889;48.232;10.110;2023-04-06T05:29:59;18.45;;;10.15;;
79438;SDS011;68889;48.232;10.110;2023-04-06T05:32:25;17.33;;;10.45;;
79438;SDS011;68889;48.232;10.110;2023-04-06T05:34:51;17.02;;;9.85;;
79438;SDS011;68889;48.232;10.110;2023-04-06T05:37:17;17.98;;;9.98;;
79438;SDS011;68889;48.232;10.110;2023-04-06T05:39:42;19.65;;;10.50;;
79438;SDS011;68889;48.232;10.110;2023-04-06T05:42:08;18.15;;;10.02;;
79438;SDS011;68889;48.232;10.110;2023-04-06T05:44:34;19.10;;;10.20;;
79438;SDS011;68889;48.232;10.110;2023-04-06T05:47:00;15.50;;;9.05;;
79438;SDS011;68889;48.232;10.110;2023-04-06T05:49:26;12.63;;;8.20;;
79438;SDS011;68889;48.232;10.110;2023-04-06T05:51:51;15.27;;;8.88;;
79438;SDS011;68889;48.232;10.110;2023-04-06T05:54:17;14.35;;;9.27;;
79438;SDS011;68889;48.232;10.110;2023-04-06T05:56:42;15.68;;;9.18;;
79438;SDS011;68889;48.232;10.110;2023-04-06T05:59:08;18.75;;;10.68;;
79438;SDS011;68889;48.232;10.110;2023-04-06T06:01:34;16.73;;;10.02;;
79438;SDS011;68889;48.232;10.110;2023-04-06T06:04:00;15.35;;;9.57;;
79438;SDS011;68889;48.232;10.110;2023-04-06T06:06:27;17.92;;;9.80;;
79438;SDS011;68889;48.232;10.110;2023-04-06T06:08:53;17.02;;;9.07;;
79438;SDS011;68889;48.232;10.110;2023-04-06T06:11:18;18.08;;;9.50;;
79438;SDS011;68889;48.232;10.110;2023-04-06T06:13:44;16.00;;;9.80;;
79438;SDS011;68889;48.232;10.110;2023-04-06T06:16:10;17.75;;;9.35;;
79438;SDS011;68889;48.232;10.110;2023-04-06T06:18:35;16.85;;;9.70;;
79438;SDS011;68889;48.232;10.110;2023-04-06T06:21:01;16.38;;;10.20;;
79438;SDS011;68889;48.232;10.110;2023-04-06T06:23:27;17.67;;;9.57;;
79438;SDS011;68889;48.232;10.110;2023-04-06T06:25:53;15.13;;;9.02;;
79438;SDS011;68889;48.232;10.110;2023-04-06T06:28:18;14.85;;;10.07;;
79438;SDS011;68889;48.232;10.110;2023-04-06T06:30:44;20.25;;;9.95;;
79438;SDS011;68889;48.232;10.110;2023-04-06T06:33:10;16.98;;;10.32;;
79438;SDS011;68889;48.232;10.110;2023-04-06T06:35:35;16.45;;;10.05;;
79438;SDS011;68889;48.232;10.110;2023-04-06T06:38:01;16.30;;;10.10;;
79438;SDS011;68889;48.232;10.110;2023-04-06T06:40:26;18.67;;;9.63;;
79438;SDS011;68889;48.232;10.110;2023-04-06T06:42:52;18.10;;;10.18;;
79438;SDS011;68889;48.232;10.110;2023-04-06T06:45:18;17.75;;;9.38;;
79438;SDS011;68889;48.232;10.110;2023-04-06T06:47:45;13.85;;;9.55;;
79438;SDS011;68889;48.232;10.110;2023-04-06T06:50:10;16.58;;;9.05;;
79438;SDS011;68889;48.232;10.110;2023-04-06T06:52:36;17.33;;;10.32;;
79438;SDS011;68889;48.232;10.110;2023-04-06T06:55:02;17.45;;;8.75;;
79438;SDS011;68889;48.232;10.110;2023-04-06T06:57:27;16.00;;;10.07;;
79438;SDS011;68889;48.232;10.110;2023-04-06T06:59:53;18.30;;;10.13;;
79438;SDS011;68889;48.232;10.110;2023-04-06T07:02:18;15.50;;;10.20;;
79438;SDS011;68889;48.232;10.110;2023-04-06T07:04:47;13.68;;;9.18;;
79438;SDS011;68889;48.232;10.110;2023-04-06T07:07:13;15.02;;;9.02;;
79438;SDS011;68889;48.232;10.110;2023-04-06T07:09:39;14.73;;;8.88;;
79438;SDS011;68889;48.232;10.110;2023-04-06T07:12:04;13.50;;;9.05;;
79438;SDS011;68889;48.232;10.110;2023-04-06T07:14:30;15.05;;;8.93;;
79438;SDS011;68889;48.232;10.110;2023-04-06T07:16:55;16.58;;;9.35;;
79438;SDS011;68889;48.232;10.110;2023-04-06T07:19:21;11.98;;;8.15;;
79438;SDS011;68889;48.232;10.110;2023-04-06T07:21:46;16.65;;;9.00;;
79438;SDS011;68889;48.232;10.110;2023-04-06T07:24:14;13.15;;;8.13;;
79438;SDS011;68889;48.232;10.110;2023-04-06T07:26:39;13.70;;;8.98;;
79438;SDS011;68889;48.232;10.110;2023-04-06T07:29:05;14.32;;;8.60;;
79438;SDS011;68889;48.232;10.110;2023-04-06T07:31:30;13.25;;;8.32;;
79438;SDS011;68889;48.232;10.110;2023-04-06T07:33:56;14.93;;;9.45;;
79438;SDS011;68889;48.232;10.110;2023-04-06T07:36:22;15.73;;;8.52;;
79438;SDS011;68889;48.232;10.110;2023-04-06T07:38:47;12.43;;;8.77;;
79438;SDS011;68889;48.232;10.110;2023-04-06T07:41:14;12.27;;;8.40;;
79438;SDS011;68889;48.232;10.110;2023-04-06T07:43:39;11.88;;;8.52;;
79438;SDS011;68889;48.232;10.110;2023-04-06T07:46:05;11.23;;;8.07;;
79438;SDS011;68889;48.232;10.110;2023-04-06T07:48:31;12.45;;;9.05;;
79438;SDS011;68889;48.232;10.110;2023-04-06T07:51:03;13.15;;;8.23;;
79438;SDS011;68889;48.232;10.110;2023-04-06T07:58:21;12.18;;;7.50;;
79438;SDS011;68889;48.232;10.110;2023-04-06T08:00:47;9.75;;;7.25;;
79438;SDS011;68889;48.232;10.110;2023-04-06T08:03:12;9.52;;;6.47;;
79438;SDS011;68889;48.232;10.110;2023-04-06T08:05:38;12.13;;;7.57;;
79438;SDS011;68889;48.232;10.110;2023-04-06T08:08:03;11.55;;;7.40;;
79438;SDS011;68889;48.232;10.110;2023-04-06T08:10:29;10.45;;;7.00;;
79438;SDS011;68889;48.232;10.110;2023-04-06T08:12:54;9.82;;;7.38;;
79438;SDS011;68889;48.232;10.110;2023-04-06T08:15:20;10.73;;;7.68;;
79438;SDS011;68889;48.232;10.110;2023-04-06T08:17:45;10.40;;;7.25;;
79438;SDS011;68889;48.232;10.110;2023-04-06T08:20:11;10.50;;;6.75;;
79438;SDS011;68889;48.232;10.110;2023-04-06T08:22:37;12.02;;;7.82;;
79438;SDS011;68889;48.232;10.110;2023-04-06T08:25:03;9.63;;;7.10;;
79438;SDS011;68889;48.232;10.110;2023-04-06T08:27:28;11.30;;;7.45;;
79438;SDS011;68889;48.232;10.110;2023-04-06T08:29:54;13.82;;;7.03;;
79438;SDS011;68889;48.232;10.110;2023-04-06T08:32:19;12.27;;;8.40;;
79438;SDS011;68889;48.232;10.110;2023-04-06T08:34:45;11.73;;;7.50;;
79438;SDS011;68889;48.232;10.110;2023-04-06T08:37:11;10.75;;;7.22;;
79438;SDS011;68889;48.232;10.110;2023-04-06T08:39:37;12.77;;;8.23;;
79438;SDS011;68889;48.232;10.110;2023-04-06T08:42:02;9.43;;;6.82;;
79438;SDS011;68889;48.232;10.110;2023-04-06T08:44:29;12.60;;;7.88;;
79438;SDS011;68889;48.232;10.110;2023-04-06T08:49:20;12.70;;;8.05;;
79438;SDS011;68889;48.232;10.110;2023-04-06T08:51:46;10.73;;;7.57;;
79438;SDS011;68889;48.232;10.110;2023-04-06T08:54:12;9.85;;;7.15;;
79438;SDS011;68889;48.232;10.110;2023-04-06T08:56:38;13.82;;;8.52;;
79438;SDS011;68889;48.232;10.110;2023-04-06T08:59:04;11.02;;;7.32;;
79438;SDS011;68889;48.232;10.110;2023-04-06T09:03:58;12.43;;;7.38;;
79438;SDS011;68889;48.232;10.110;2023-04-06T09:06:30;11.90;;;7.00;;
79438;SDS011;68889;48.232;10.110;2023-04-06T09:08:55;10.98;;;7.30;;
79438;SDS011;68889;48.232;10.110;2023-04-06T09:11:21;11.43;;;7.53;;
79438;SDS011;68889;48.232;10.110;2023-04-06T09:13:48;12.07;;;7.72;;
79438;SDS011;68889;48.232;10.110;2023-04-06T09:16:14;12.65;;;8.20;;
79438;SDS011;68889;48.232;10.110;2023-04-06T09:18:41;10.95;;;7.45;;
79438;SDS011;68889;48.232;10.110;2023-04-06T09:21:07;12.30;;;6.93;;
79438;SDS011;68889;48.232;10.110;2023-04-06T09:26:06;11.23;;;7.53;;
79438;SDS011;68889;48.232;10.110;2023-04-06T09:28:56;12.32;;;7.88;;
79438;SDS011;68889;48.232;10.110;2023-04-06T09:31:24;13.05;;;7.70;;
79438;SDS011;68889;48.232;10.110;2023-04-06T09:33:51;12.02;;;7.57;;
79438;SDS011;68889;48.232;10.110;2023-04-06T09:36:17;10.68;;;7.50;;
79438;SDS011;68889;48.232;10.110;2023-04-06T09:38:57;12.60;;;8.13;;
79438;SDS011;68889;48.232;10.110;2023-04-06T09:41:29;11.88;;;7.93;;
79438;SDS011;68889;48.232;10.110;2023-04-06T09:46:36;13.07;;;8.02;;
79438;SDS011;68889;48.232;10.110;2023-04-06T09:49:02;10.48;;;6.60;;
79438;SDS011;68889;48.232;10.110;2023-04-06T09:53:55;8.43;;;5.82;;
79438;SDS011;68889;48.232;10.110;2023-04-06T09:56:28;11.65;;;7.38;;
79438;SDS011;68889;48.232;10.110;2023-04-06T09:58:57;11.48;;;7.03;;
79438;SDS011;68889;48.232;10.110;2023-04-06T10:01:28;10.00;;;6.47;;
79438;SDS011;68889;48.232;10.110;2023-04-06T10:04:09;11.00;;;6.70;;
79438;SDS011;68889;48.232;10.110;2023-04-06T10:06:46;9.65;;;6.60;;
79438;SDS011;68889;48.232;10.110;2023-04-06T10:09:17;9.32;;;6.07;;
79438;SDS011;68889;48.232;10.110;2023-04-06T10:11:47;9.02;;;6.47;;
79438;SDS011;68889;48.232;10.110;2023-04-06T10:14:14;10.70;;;6.50;;
79438;SDS011;68889;48.232;10.110;2023-04-06T10:16:40;10.20;;;6.85;;
79438;SDS011;68889;48.232;10.110;2023-04-06T10:19:12;11.07;;;7.13;;
79438;SDS011;68889;48.232;10.110;2023-04-06T10:21:42;11.63;;;7.55;;
79438;SDS011;68889;48.232;10.110;2023-04-06T10:24:11;9.13;;;6.32;;
79438;SDS011;68889;48.232;10.110;2023-04-06T10:26:37;7.60;;;5.18;;
79438;SDS011;68889;48.232;10.110;2023-04-06T10:29:03;9.88;;;6.32;;
79438;SDS011;68889;48.232;10.110;2023-04-06T10:31:30;8.05;;;5.88;;
79438;SDS011;68889;48.232;10.110;2023-04-06T10:33:56;7.78;;;5.30;;
79438;SDS011;68889;48.232;10.110;2023-04-06T10:36:26;9.23;;;6.10;;
79438;SDS011;68889;48.232;10.110;2023-04-06T10:38:57;8.48;;;6.07;;
79438;SDS011;68889;48.232;10.110;2023-04-06T10:41:31;8.27;;;5.03;;
79438;SDS011;68889;48.232;10.110;2023-04-06T10:44:05;6.97;;;4.43;;
79438;SDS011;68889;48.232;10.110;2023-04-06T10:46:32;7.13;;;4.95;;
79438;SDS011;68889;48.232;10.110;2023-04-06T10:49:09;7.15;;;4.85;;
79438;SDS011;68889;48.232;10.110;2023-04-06T10:51:37;6.85;;;4.53;;
79438;SDS011;68889;48.232;10.110;2023-04-06T10:54:03;7.03;;;5.32;;
79438;SDS011;68889;48.232;10.110;2023-04-06T10:56:31;6.75;;;5.05;;
79438;SDS011;68889;48.232;10.110;2023-04-06T10:59:01;7.10;;;4.90;;
79438;SDS011;68889;48.232;10.110;2023-04-06T11:01:27;6.13;;;4.75;;
79438;SDS011;68889;48.232;10.110;2023-04-06T11:03:56;8.35;;;5.18;;
79438;SDS011;68889;48.232;10.110;2023-04-06T11:06:26;9.48;;;6.18;;
79438;SDS011;68889;48.232;10.110;2023-04-06T11:08:54;6.97;;;5.20;;
79438;SDS011;68889;48.232;10.110;2023-04-06T11:11:21;6.68;;;5.03;;
79438;SDS011;68889;48.232;10.110;2023-04-06T11:16:21;6.30;;;4.82;;
79438;SDS011;68889;48.232;10.110;2023-04-06T11:24:20;6.85;;;4.63;;
79438;SDS011;68889;48.232;10.110;2023-04-06T11:26:47;6.47;;;4.95;;
79438;SDS011;68889;48.232;10.110;2023-04-06T11:29:17;9.45;;;4.45;;
79438;SDS011;68889;48.232;10.110;2023-04-06T11:31:50;7.80;;;5.22;;
79438;SDS011;68889;48.232;10.110;2023-04-06T11:34:18;8.10;;;4.95;;
79438;SDS011;68889;48.232;10.110;2023-04-06T11:36:46;7.82;;;4.63;;
79438;SDS011;68889;48.232;10.110;2023-04-06T11:39:17;6.20;;;4.82;;
79438;SDS011;68889;48.232;10.110;2023-04-06T11:41:47;7.97;;;5.22;;
79438;SDS011;68889;48.232;10.110;2023-04-06T11:44:14;6.18;;;4.82;;
79438;SDS011;68889;48.232;10.110;2023-04-06T11:46:39;9.27;;;5.57;;
79438;SDS011;68889;48.232;10.110;2023-04-06T11:49:05;8.75;;;5.78;;
79438;SDS011;68889;48.232;10.110;2023-04-06T11:51:35;7.80;;;5.43;;
79438;SDS011;68889;48.232;10.110;2023-04-06T11:54:01;8.68;;;5.70;;
79438;SDS011;68889;48.232;10.110;2023-04-06T11:56:30;6.97;;;4.72;;
79438;SDS011;68889;48.232;10.110;2023-04-06T11:58:56;6.72;;;4.60;;
79438;SDS011;68889;48.232;10.110;2023-04-06T12:01:24;7.18;;;4.93;;
79438;SDS011;68889;48.232;10.110;2023-04-06T12:03:50;7.30;;;4.72;;
79438;SDS011;68889;48.232;10.110;2023-04-06T12:06:16;6.72;;;5.30;;
79438;SDS011;68889;48.232;10.110;2023-04-06T12:08:42;6.97;;;5.07;;
79438;SDS011;68889;48.232;10.110;2023-04-06T12:11:09;5.97;;;4.60;;
79438;SDS011;68889;48.232;10.110;2023-04-06T12:13:35;6.88;;;4.75;;
79438;SDS011;68889;48.232;10.110;2023-04-06T12:16:01;7.15;;;4.97;;
79438;SDS011;68889;48.232;10.110;2023-04-06T12:18:26;8.30;;;5.05;;
79438;SDS011;68889;48.232;10.110;2023-04-06T12:20:52;6.75;;;5.22;;
79438;SDS011;68889;48.232;10.110;2023-04-06T12:23:18;7.68;;;5.65;;
79438;SDS011;68889;48.232;10.110;2023-04-06T12:25:44;8.15;;;5.95;;
79438;SDS011;68889;48.232;10.110;2023-04-06T12:28:10;7.70;;;5.30;;
79438;SDS011;68889;48.232;10.110;2023-04-06T12:30:36;7.07;;;4.88;;
79438;SDS011;68889;48.232;10.110;2023-04-06T12:33:01;5.78;;;4.55;;
79438;SDS011;68889;48.232;10.110;2023-04-06T12:35:27;5.82;;;5.13;;
79438;SDS011;68889;48.232;10.110;2023-04-06T12:37:52;7.85;;;5.75;;
79438;SDS011;68889;48.232;10.110;2023-04-06T12:40:18;7.18;;;5.70;;
79438;SDS011;68889;48.232;10.110;2023-04-06T12:42:45;6.57;;;5.35;;
79438;SDS011;68889;48.232;10.110;2023-04-06T12:45:11;7.68;;;5.25;;
79438;SDS011;68889;48.232;10.110;2023-04-06T12:47:37;7.22;;;5.13;;
79438;SDS011;68889;48.232;10.110;2023-04-06T12:50:03;8.50;;;5.07;;
79438;SDS011;68889;48.232;10.110;2023-04-06T12:52:30;7.15;;;4.95;;
79438;SDS011;68889;48.232;10.110;2023-04-06T12:54:57;6.75;;;5.28;;
79438;SDS011;68889;48.232;10.110;2023-04-06T12:57:24;8.57;;;6.35;;
79438;SDS011;68889;48.232;10.110;2023-04-06T12:59:51;7.20;;;5.32;;
79438;SDS011;68889;48.232;10.110;2023-04-06T13:02:17;6.78;;;5.40;;
79438;SDS011;68889;48.232;10.110;2023-04-06T13:04:45;11.13;;;6.43;;
79438;SDS011;68889;48.232;10.110;2023-04-06T13:07:10;7.65;;;5.20;;
79438;SDS011;68889;48.232;10.110;2023-04-06T13:09:36;9.13;;;5.40;;
79438;SDS011;68889;48.232;10.110;2023-04-06T13:12:02;7.13;;;5.47;;
79438;SDS011;68889;48.232;10.110;2023-04-06T13:14:28;6.13;;;4.75;;
79438;SDS011;68889;48.232;10.110;2023-04-06T13:16:53;6.32;;;4.90;;
79438;SDS011;68889;48.232;10.110;2023-04-06T13:19:19;7.13;;;5.18;;
79438;SDS011;68889;48.232;10.110;2023-04-06T13:21:45;7.45;;;5.15;;
79438;SDS011;68889;48.232;10.110;2023-04-06T13:24:10;7.32;;;5.55;;
79438;SDS011;68889;48.232;10.110;2023-04-06T13:26:36;7.50;;;5.78;;
79438;SDS011;68889;48.232;10.110;2023-04-06T13:29:02;8.93;;;5.93;;
79438;SDS011;68889;48.232;10.110;2023-04-06T13:31:27;8.13;;;6.20;;
79438;SDS011;68889;48.232;10.110;2023-04-06T13:33:53;6.38;;;5.40;;
79438;SDS011;68889;48.232;10.110;2023-04-06T13:36:19;7.38;;;6.28;;
79438;SDS011;68889;48.232;10.110;2023-04-06T13:38:44;7.43;;;6.15;;
79438;SDS011;68889;48.232;10.110;2023-04-06T13:41:17;8.45;;;6.00;;
79438;SDS011;68889;48.232;10.110;2023-04-06T13:43:45;6.85;;;5.78;;
79438;SDS011;68889;48.232;10.110;2023-04-06T13:46:11;7.32;;;5.63;;
79438;SDS011;68889;48.232;10.110;2023-04-06T13:48:37;8.07;;;5.95;;
79438;SDS011;68889;48.232;10.110;2023-04-06T13:51:11;7.35;;;5.72;;
79438;SDS011;68889;48.232;10.110;2023-04-06T13:53:38;8.95;;;5.90;;
79438;SDS011;68889;48.232;10.110;2023-04-06T13:56:05;6.60;;;5.05;;
79438;SDS011;68889;48.232;10.110;2023-04-06T13:58:31;8.35;;;5.38;;
79438;SDS011;68889;48.232;10.110;2023-04-06T14:01:04;6.20;;;4.60;;
79438;SDS011;68889;48.232;10.110;2023-04-06T14:03:31;6.25;;;4.50;;
79438;SDS011;68889;48.232;10.110;2023-04-06T14:05:57;7.15;;;5.47;;
79438;SDS011;68889;48.232;10.110;2023-04-06T14:08:22;7.03;;;4.70;;
79438;SDS011;68889;48.232;10.110;2023-04-06T14:10:48;6.28;;;4.88;;
79438;SDS011;68889;48.232;10.110;2023-04-06T14:13:14;5.78;;;4.60;;
79438;SDS011;68889;48.232;10.110;2023-04-06T14:15:40;6.43;;;5.05;;
79438;SDS011;68889;48.232;10.110;2023-04-06T14:18:07;7.25;;;5.35;;
79438;SDS011;68889;48.232;10.110;2023-04-06T14:20:33;7.38;;;5.68;;
79438;SDS011;68889;48.232;10.110;2023-04-06T14:22:59;6.80;;;4.93;;
79438;SDS011;68889;48.232;10.110;2023-04-06T14:25:26;6.40;;;4.80;;
79438;SDS011;68889;48.232;10.110;2023-04-06T14:27:52;5.93;;;4.53;;
79438;SDS011;68889;48.232;10.110;2023-04-06T14:30:18;5.93;;;4.63;;
79438;SDS011;68889;48.232;10.110;2023-04-06T14:32:43;7.95;;;5.28;;
79438;SDS011;68889;48.232;10.110;2023-04-06T14:35:09;7.78;;;5.40;;
79438;SDS011;68889;48.232;10.110;2023-04-06T14:37:35;5.70;;;4.88;;
79438;SDS011;68889;48.232;10.110;2023-04-06T14:40:01;8.00;;;5.47;;
79438;SDS011;68889;48.232;10.110;2023-04-06T14:42:27;5.57;;;4.35;;
79438;SDS011;68889;48.232;10.110;2023-04-06T14:44:52;6.65;;;5.28;;